sensor_id;sensor_type;location;lat;lon;timestamp;pressure;altitude;pressure_sealevel;temperature;humidity
51928;BME280;37953;52.806;18.270;2023-04-26T00:01:20;99992.94;;;8.43;100.00
51928;BME280;37953;52.806;18.270;2023-04-26T00:03:47;99995.50;;;8.43;100.00
51928;BME280;37953;52.806;18.270;2023-04-26T00:06:13;99992.06;;;8.41;100.00
51928;BME280;37953;52.806;18.270;2023-04-26T00:08:39;99990.28;;;8.39;100.00
51928;BME280;37953;52.806;18.270;2023-04-26T00:11:06;99989.41;;;8.36;100.00
51928;BME280;37953;52.806;18.270;2023-04-26T00:13:32;99993.72;;;8.33;100.00
51928;BME280;37953;52.806;18.270;2023-04-26T00:15:58;99995.44;;;8.32;100.00
51928;BME280;37953;52.806;18.270;2023-04-26T00:18:24;100000.59;;;8.31;100.00
51928;BME280;37953;52.806;18.270;2023-04-26T00:20:50;99999.75;;;8.30;100.00
51928;BME280;37953;52.806;18.270;2023-04-26T00:23:16;99998.00;;;8.28;100.00
51928;BME280;37953;52.806;18.270;2023-04-26T00:25:43;99997.13;;;8.27;100.00
51928;BME280;37953;52.806;18.270;2023-04-26T00:28:08;99996.25;;;8.24;100.00
51928;BME280;37953;52.806;18.270;2023-04-26T00:30:35;100001.44;;;8.22;100.00
51928;BME280;37953;52.806;18.270;2023-04-26T00:33:07;100001.41;;;8.18;100.00
51928;BME280;37953;52.806;18.270;2023-04-26T00:35:39;100000.56;;;8.17;100.00
51928;BME280;37953;52.806;18.270;2023-04-26T00:38:05;99997.09;;;8.15;100.00
51928;BME280;37953;52.806;18.270;2023-04-26T00:40:31;100002.25;;;8.13;100.00
51928;BME280;37953;52.806;18.270;2023-04-26T00:42:57;99997.03;;;8.10;100.00
51928;BME280;37953;52.806;18.270;2023-04-26T00:45:23;100000.53;;;8.11;100.00
51928;BME280;37953;52.806;18.270;2023-04-26T00:47:49;100000.53;;;8.11;100.00
51928;BME280;37953;52.806;18.270;2023-04-26T00:50:15;100004.81;;;8.10;100.00
51928;BME280;37953;52.806;18.270;2023-04-26T00:52:42;99999.59;;;8.06;100.00
51928;BME280;37953;52.806;18.270;2023-04-26T00:55:09;100003.94;;;8.07;100.00
51928;BME280;37953;52.806;18.270;2023-04-26T00:57:35;100002.19;;;8.04;100.00
51928;BME280;37953;52.806;18.270;2023-04-26T01:00:01;100002.19;;;8.01;100.00
51928;BME280;37953;52.806;18.270;2023-04-26T01:02:27;100005.63;;;8.00;100.00
51928;BME280;37953;52.806;18.270;2023-04-26T01:04:53;100011.66;;;7.99;100.00
51928;BME280;37953;52.806;18.270;2023-04-26T01:07:19;100006.44;;;7.93;100.00
51928;BME280;37953;52.806;18.270;2023-04-26T01:09:46;100010.75;;;7.95;100.00
51928;BME280;37953;52.806;18.270;2023-04-26T01:12:13;100013.34;;;7.94;100.00
51928;BME280;37953;52.806;18.270;2023-04-26T01:14:39;100002.97;;;7.91;100.00
51928;BME280;37953;52.806;18.270;2023-04-26T01:17:11;100003.84;;;7.90;100.00
51928;BME280;37953;52.806;18.270;2023-04-26T01:19:51;100009.91;;;7.92;100.00
51928;BME280;37953;52.806;18.270;2023-04-26T01:22:17;100010.72;;;7.86;100.00
51928;BME280;37953;52.806;18.270;2023-04-26T01:24:50;100008.09;;;7.85;100.00
51928;BME280;37953;52.806;18.270;2023-04-26T01:27:17;100008.97;;;7.82;100.00
51928;BME280;37953;52.806;18.270;2023-04-26T01:29:43;100013.25;;;7.80;100.00
51928;BME280;37953;52.806;18.270;2023-04-26T01:32:10;100009.81;;;7.81;100.00
51928;BME280;37953;52.806;18.270;2023-04-26T01:34:36;100019.28;;;7.81;100.00
51928;BME280;37953;52.806;18.270;2023-04-26T01:37:02;100014.09;;;7.81;100.00
51928;BME280;37953;52.806;18.270;2023-04-26T01:39:28;100011.53;;;7.81;100.00
51928;BME280;37953;52.806;18.270;2023-04-26T01:41:56;100018.47;;;7.83;100.00
51928;BME280;37953;52.806;18.270;2023-04-26T01:44:23;100014.16;;;7.85;100.00
51928;BME280;37953;52.806;18.270;2023-04-26T01:46:49;100018.44;;;7.85;100.00
51928;BME280;37953;52.806;18.270;2023-04-26T01:49:15;100010.72;;;7.86;100.00
51928;BME280;37953;52.806;18.270;2023-04-26T01:51:41;100010.72;;;7.86;100.00
51928;BME280;37953;52.806;18.270;2023-04-26T01:54:06;100009.00;;;7.88;100.00
51928;BME280;37953;52.806;18.270;2023-04-26T01:56:32;100014.19;;;7.88;100.00
51928;BME280;37953;52.806;18.270;2023-04-26T01:58:58;100015.91;;;7.91;100.00
51928;BME280;37953;52.806;18.270;2023-04-26T02:01:24;100013.31;;;7.91;100.00
51928;BME280;37953;52.806;18.270;2023-04-26T02:03:51;100015.88;;;7.89;100.00
51928;BME280;37953;52.806;18.270;2023-04-26T02:06:17;100014.19;;;7.88;100.00
51928;BME280;37953;52.806;18.270;2023-04-26T02:08:44;100017.66;;;7.92;100.00
51928;BME280;37953;52.806;18.270;2023-04-26T02:11:09;100015.94;;;7.92;100.00
51928;BME280;37953;52.806;18.270;2023-04-26T02:13:36;100020.22;;;7.93;100.00
51928;BME280;37953;52.806;18.270;2023-04-26T02:16:02;100012.47;;;7.93;100.00
51928;BME280;37953;52.806;18.270;2023-04-26T02:18:28;100016.81;;;7.94;100.00
51928;BME280;37953;52.806;18.270;2023-04-26T02:20:54;100011.66;;;7.96;100.00
51928;BME280;37953;52.806;18.270;2023-04-26T02:23:20;100009.06;;;7.96;100.00
51928;BME280;37953;52.806;18.270;2023-04-26T02:25:47;100010.78;;;7.97;100.00
51928;BME280;37953;52.806;18.270;2023-04-26T02:28:14;100008.19;;;7.99;100.00
51928;BME280;37953;52.806;18.270;2023-04-26T02:30:41;100012.53;;;7.98;100.00
51928;BME280;37953;52.806;18.270;2023-04-26T02:33:13;100011.69;;;8.02;100.00
51928;BME280;37953;52.806;18.270;2023-04-26T02:35:38;100002.19;;;8.03;100.00
51928;BME280;37953;52.806;18.270;2023-04-26T02:38:05;100001.34;;;8.02;100.00
51928;BME280;37953;52.806;18.270;2023-04-26T02:40:31;100004.75;;;8.04;100.00
51928;BME280;37953;52.806;18.270;2023-04-26T02:42:58;100006.50;;;8.04;100.00
51928;BME280;37953;52.806;18.270;2023-04-26T02:45:23;100007.38;;;8.03;100.00
51928;BME280;37953;52.806;18.270;2023-04-26T02:47:49;99999.59;;;8.01;100.00
51928;BME280;37953;52.806;18.270;2023-04-26T02:50:15;100005.63;;;8.00;100.00
51928;BME280;37953;52.806;18.270;2023-04-26T02:52:41;99997.84;;;7.97;100.00
51928;BME280;37953;52.806;18.270;2023-04-26T02:55:07;99994.41;;;7.97;100.00
51928;BME280;37953;52.806;18.270;2023-04-26T02:57:34;99996.09;;;7.93;100.00
51928;BME280;37953;52.806;18.270;2023-04-26T03:00:00;99993.50;;;7.90;100.00
51928;BME280;37953;52.806;18.270;2023-04-26T03:02:26;99989.16;;;7.89;100.00
51928;BME280;37953;52.806;18.270;2023-04-26T03:04:52;99991.75;;;7.86;100.00
51928;BME280;37953;52.806;18.270;2023-04-26T03:07:18;99996.03;;;7.84;100.00
51928;BME280;37953;52.806;18.270;2023-04-26T03:09:44;100002.06;;;7.81;100.00
51928;BME280;37953;52.806;18.270;2023-04-26T03:12:10;99996.88;;;7.78;100.00
51928;BME280;37953;52.806;18.270;2023-04-26T03:14:36;100006.34;;;7.78;100.00
51928;BME280;37953;52.806;18.270;2023-04-26T03:17:02;100010.66;;;7.75;100.00
51928;BME280;37953;52.806;18.270;2023-04-26T03:19:28;100018.34;;;7.72;100.00
51928;BME280;37953;52.806;18.270;2023-04-26T03:21:54;100014.91;;;7.69;100.00
51928;BME280;37953;52.806;18.270;2023-04-26T03:24:20;100016.59;;;7.65;100.00
51928;BME280;37953;52.806;18.270;2023-04-26T03:26:47;100017.44;;;7.63;100.00
51928;BME280;37953;52.806;18.270;2023-04-26T03:29:13;100021.72;;;7.59;100.00
51928;BME280;37953;52.806;18.270;2023-04-26T03:31:39;100032.06;;;7.59;100.00
51928;BME280;37953;52.806;18.270;2023-04-26T03:34:04;100032.91;;;7.57;100.00
51928;BME280;37953;52.806;18.270;2023-04-26T03:36:31;100042.38;;;7.54;100.00
51928;BME280;37953;52.806;18.270;2023-04-26T03:38:57;100039.78;;;7.51;100.00
51928;BME280;37953;52.806;18.270;2023-04-26T03:41:23;100036.31;;;7.49;100.00
51928;BME280;37953;52.806;18.270;2023-04-26T03:43:49;100040.59;;;7.47;100.00
51928;BME280;37953;52.806;18.270;2023-04-26T03:46:15;100054.34;;;7.45;100.00
51928;BME280;37953;52.806;18.270;2023-04-26T03:48:41;100056.03;;;7.43;100.00
51928;BME280;37953;52.806;18.270;2023-04-26T03:51:07;100062.06;;;7.42;100.00
51928;BME280;37953;52.806;18.270;2023-04-26T03:53:33;100056.06;;;7.41;100.00
51928;BME280;37953;52.806;18.270;2023-04-26T03:55:59;100056.06;;;7.41;100.00
51928;BME280;37953;52.806;18.270;2023-04-26T03:58:25;100056.88;;;7.40;100.00
51928;BME280;37953;52.806;18.270;2023-04-26T04:00:51;100056.00;;;7.38;100.00
51928;BME280;37953;52.806;18.270;2023-04-26T04:03:17;100062.91;;;7.39;100.00
51928;BME280;37953;52.806;18.270;2023-04-26T04:05:43;100055.16;;;7.38;100.00
51928;BME280;37953;52.806;18.270;2023-04-26T04:08:09;100055.16;;;7.38;100.00
51928;BME280;37953;52.806;18.270;2023-04-26T04:10:35;100063.75;;;7.37;100.00
51928;BME280;37953;52.806;18.270;2023-04-26T04:13:02;100055.16;;;7.38;100.00
51928;BME280;37953;52.806;18.270;2023-04-26T04:15:28;100075.84;;;7.39;100.00
51928;BME280;37953;52.806;18.270;2023-04-26T04:17:54;100069.78;;;7.37;100.00
51928;BME280;37953;52.806;18.270;2023-04-26T04:20:29;100069.78;;;7.36;100.00
51928;BME280;37953;52.806;18.270;2023-04-26T04:22:55;100068.88;;;7.32;100.00
51928;BME280;37953;52.806;18.270;2023-04-26T04:25:22;100073.16;;;7.31;100.00
51928;BME280;37953;52.806;18.270;2023-04-26T04:27:49;100069.72;;;7.29;100.00
51928;BME280;37953;52.806;18.270;2023-04-26T04:30:16;100079.19;;;7.29;100.00
51928;BME280;37953;52.806;18.270;2023-04-26T04:32:42;100069.69;;;7.26;100.00
51928;BME280;37953;52.806;18.270;2023-04-26T04:35:11;100080.03;;;7.26;100.00
51928;BME280;37953;52.806;18.270;2023-04-26T04:37:38;100074.81;;;7.23;100.00
51928;BME280;37953;52.806;18.270;2023-04-26T04:40:04;100080.84;;;7.24;100.00
51928;BME280;37953;52.806;18.270;2023-04-26T04:42:36;100086.03;;;7.25;100.00
51928;BME280;37953;52.806;18.270;2023-04-26T04:45:02;100080.03;;;7.26;100.00
51928;BME280;37953;52.806;18.270;2023-04-26T04:47:29;100089.47;;;7.24;100.00
51928;BME280;37953;52.806;18.270;2023-04-26T04:49:55;100088.59;;;7.22;100.00
51928;BME280;37953;52.806;18.270;2023-04-26T04:52:21;100085.13;;;7.20;100.00
51928;BME280;37953;52.806;18.270;2023-04-26T04:54:47;100092.00;;;7.18;100.00
51928;BME280;37953;52.806;18.270;2023-04-26T04:57:13;100098.00;;;7.17;100.00
51928;BME280;37953;52.806;18.270;2023-04-26T04:59:41;100089.38;;;7.17;100.00
51928;BME280;37953;52.806;18.270;2023-04-26T05:02:07;100099.69;;;7.15;100.00
51928;BME280;37953;52.806;18.270;2023-04-26T05:04:33;100097.16;;;7.18;100.00
51928;BME280;37953;52.806;18.270;2023-04-26T05:06:59;100098.88;;;7.19;100.00
51928;BME280;37953;52.806;18.270;2023-04-26T05:09:32;100103.25;;;7.22;100.00
51928;BME280;37953;52.806;18.270;2023-04-26T05:11:57;100108.41;;;7.22;100.00
51928;BME280;37953;52.806;18.270;2023-04-26T05:14:23;100094.59;;;7.21;100.00
51928;BME280;37953;52.806;18.270;2023-04-26T05:16:49;100104.09;;;7.22;100.00
51928;BME280;37953;52.806;18.270;2023-04-26T05:19:22;100101.50;;;7.24;100.00
51928;BME280;37953;52.806;18.270;2023-04-26T05:21:48;100108.44;;;7.26;100.00
51928;BME280;37953;52.806;18.270;2023-04-26T05:24:14;100109.25;;;7.24;100.00
51928;BME280;37953;52.806;18.270;2023-04-26T05:26:40;100110.97;;;7.23;100.00
51928;BME280;37953;52.806;18.270;2023-04-26T05:29:06;100108.44;;;7.26;100.00
51928;BME280;37953;52.806;18.270;2023-04-26T05:31:32;100112.75;;;7.27;100.00
51928;BME280;37953;52.806;18.270;2023-04-26T05:33:58;100118.78;;;7.28;100.00
51928;BME280;37953;52.806;18.270;2023-04-26T05:36:23;100113.66;;;7.31;100.00
51928;BME280;37953;52.806;18.270;2023-04-26T05:38:50;100116.25;;;7.34;100.00
51928;BME280;37953;52.806;18.270;2023-04-26T05:41:15;100117.13;;;7.33;100.00
51928;BME280;37953;52.806;18.270;2023-04-26T05:43:41;100124.88;;;7.33;100.00
51928;BME280;37953;52.806;18.270;2023-04-26T05:46:07;100120.59;;;7.35;100.00
51928;BME280;37953;52.806;18.270;2023-04-26T05:48:33;100121.44;;;7.34;100.00
51928;BME280;37953;52.806;18.270;2023-04-26T05:50:59;100115.41;;;7.33;100.00
51928;BME280;37953;52.806;18.270;2023-04-26T05:53:25;100118.88;;;7.36;100.00
51928;BME280;37953;52.806;18.270;2023-04-26T05:55:51;100121.47;;;7.37;100.00
51928;BME280;37953;52.806;18.270;2023-04-26T05:58:18;100126.63;;;7.39;100.00
51928;BME280;37953;52.806;18.270;2023-04-26T06:00:43;100122.34;;;7.38;100.00
51928;BME280;37953;52.806;18.270;2023-04-26T06:03:10;100126.63;;;7.39;100.00
51928;BME280;37953;52.806;18.270;2023-04-26T06:05:36;100123.22;;;7.40;100.00
51928;BME280;37953;52.806;18.270;2023-04-26T06:08:03;100129.25;;;7.40;100.00
51928;BME280;37953;52.806;18.270;2023-04-26T06:10:29;100124.97;;;7.42;100.00
51928;BME280;37953;52.806;18.270;2023-04-26T06:12:56;100134.41;;;7.40;100.00
51928;BME280;37953;52.806;18.270;2023-04-26T06:15:22;100129.25;;;7.40;100.00
51928;BME280;37953;52.806;18.270;2023-04-26T06:17:47;100126.69;;;7.42;100.00
51928;BME280;37953;52.806;18.270;2023-04-26T06:20:13;100136.16;;;7.43;100.00
51928;BME280;37953;52.806;18.270;2023-04-26T06:22:40;100130.13;;;7.42;100.00
51928;BME280;37953;52.806;18.270;2023-04-26T06:25:06;100125.81;;;7.41;100.00
51928;BME280;37953;52.806;18.270;2023-04-26T06:27:32;100134.41;;;7.40;100.00
51928;BME280;37953;52.806;18.270;2023-04-26T06:29:58;100134.41;;;7.40;100.00
51928;BME280;37953;52.806;18.270;2023-04-26T06:32:25;100125.81;;;7.40;100.00
51928;BME280;37953;52.806;18.270;2023-04-26T06:34:51;100127.53;;;7.42;100.00
51928;BME280;37953;52.806;18.270;2023-04-26T06:37:17;100131.00;;;7.44;100.00
51928;BME280;37953;52.806;18.270;2023-04-26T06:39:43;100129.31;;;7.46;100.00
51928;BME280;37953;52.806;18.270;2023-04-26T06:42:09;100136.19;;;7.44;100.00
51928;BME280;37953;52.806;18.270;2023-04-26T06:44:41;100142.22;;;7.46;100.00
51928;BME280;37953;52.806;18.270;2023-04-26T06:47:07;100137.09;;;7.48;100.00
51928;BME280;37953;52.806;18.270;2023-04-26T06:49:34;100127.63;;;7.50;100.00
51928;BME280;37953;52.806;18.270;2023-04-26T06:52:00;100147.47;;;7.52;100.00
51928;BME280;37953;52.806;18.270;2023-04-26T06:54:27;100131.97;;;7.52;100.00
51928;BME280;37953;52.806;18.270;2023-04-26T06:56:53;100131.09;;;7.55;100.00
51928;BME280;37953;52.806;18.270;2023-04-26T06:59:19;100124.25;;;7.57;100.00
51928;BME280;37953;52.806;18.270;2023-04-26T07:01:45;100135.47;;;7.59;100.00
51928;BME280;37953;52.806;18.270;2023-04-26T07:04:11;100140.69;;;7.62;100.00
51928;BME280;37953;52.806;18.270;2023-04-26T07:06:38;100141.56;;;7.64;100.00
51928;BME280;37953;52.806;18.270;2023-04-26T07:09:04;100144.13;;;7.66;100.00
51928;BME280;37953;52.806;18.270;2023-04-26T07:11:30;100144.16;;;7.67;100.00
51928;BME280;37953;52.806;18.270;2023-04-26T07:13:56;100148.47;;;7.67;100.00
51928;BME280;37953;52.806;18.270;2023-04-26T07:16:23;100137.31;;;7.71;100.00
51928;BME280;37953;52.806;18.270;2023-04-26T07:18:48;100142.50;;;7.74;100.00
51928;BME280;37953;52.806;18.270;2023-04-26T07:21:15;100145.97;;;7.78;100.00
51928;BME280;37953;52.806;18.270;2023-04-26T07:23:40;100149.44;;;7.80;100.00
51928;BME280;37953;52.806;18.270;2023-04-26T07:26:09;100141.72;;;7.84;100.00
51928;BME280;37953;52.806;18.270;2023-04-26T07:28:35;100147.81;;;7.88;100.00
51928;BME280;37953;52.806;18.270;2023-04-26T07:31:01;100156.41;;;7.88;100.00
51928;BME280;37953;52.806;18.270;2023-04-26T07:33:28;100143.47;;;7.88;100.00
51928;BME280;37953;52.806;18.270;2023-04-26T07:35:55;100145.19;;;7.89;100.00
51928;BME280;37953;52.806;18.270;2023-04-26T07:38:22;100140.91;;;7.90;100.00
51928;BME280;37953;52.806;18.270;2023-04-26T07:40:48;100149.53;;;7.90;99.64
51928;BME280;37953;52.806;18.270;2023-04-26T07:43:21;100152.97;;;7.91;97.85
51928;BME280;37953;52.806;18.270;2023-04-26T07:45:47;100152.13;;;7.93;98.16
51928;BME280;37953;52.806;18.270;2023-04-26T07:48:13;100160.78;;;7.97;99.94
51928;BME280;37953;52.806;18.270;2023-04-26T07:50:39;100153.03;;;7.97;100.00
51928;BME280;37953;52.806;18.270;2023-04-26T07:53:05;100165.16;;;8.03;97.53
51928;BME280;37953;52.806;18.270;2023-04-26T07:55:31;100162.56;;;8.04;95.75
51928;BME280;37953;52.806;18.270;2023-04-26T07:57:57;100165.19;;;8.06;93.33
51928;BME280;37953;52.806;18.270;2023-04-26T08:00:23;100160.03;;;8.07;92.16
51928;BME280;37953;52.806;18.270;2023-04-26T08:02:49;100170.38;;;8.10;92.32
51928;BME280;37953;52.806;18.270;2023-04-26T08:05:15;100167.84;;;8.13;92.53
51928;BME280;37953;52.806;18.270;2023-04-26T08:07:42;100170.44;;;8.18;94.46
51928;BME280;37953;52.806;18.270;2023-04-26T08:10:09;100162.72;;;8.23;93.58
51928;BME280;37953;52.806;18.270;2023-04-26T08:12:36;100174.00;;;8.28;93.39
51928;BME280;37953;52.806;18.270;2023-04-26T08:15:03;100169.69;;;8.33;93.72
51928;BME280;37953;52.806;18.270;2023-04-26T08:17:30;100174.91;;;8.38;92.94
51928;BME280;37953;52.806;18.270;2023-04-26T08:19:57;100183.59;;;8.41;91.56
51928;BME280;37953;52.806;18.270;2023-04-26T08:22:23;100176.72;;;8.43;90.75
51928;BME280;37953;52.806;18.270;2023-04-26T08:24:51;100179.31;;;8.46;91.50
51928;BME280;37953;52.806;18.270;2023-04-26T08:27:17;100174.16;;;8.48;90.03
51928;BME280;37953;52.806;18.270;2023-04-26T08:29:44;100174.16;;;8.49;89.08
51928;BME280;37953;52.806;18.270;2023-04-26T08:32:11;100185.41;;;8.53;88.36
51928;BME280;37953;52.806;18.270;2023-04-26T08:34:37;100172.47;;;8.54;88.13
51928;BME280;37953;52.806;18.270;2023-04-26T08:37:02;100176.81;;;8.59;87.86
51928;BME280;37953;52.806;18.270;2023-04-26T08:39:30;100178.56;;;8.63;88.68
51928;BME280;37953;52.806;18.270;2023-04-26T08:42:02;100169.09;;;8.66;89.18
51928;BME280;37953;52.806;18.270;2023-04-26T08:44:30;100178.56;;;8.67;90.07
51928;BME280;37953;52.806;18.270;2023-04-26T08:49:40;100176.00;;;8.70;88.75
51928;BME280;37953;52.806;18.270;2023-04-26T08:52:08;100181.19;;;8.72;87.92
51928;BME280;37953;52.806;18.270;2023-04-26T08:54:36;100185.53;;;8.73;84.57
51928;BME280;37953;52.806;18.270;2023-04-26T08:57:03;100183.81;;;8.75;84.88
51928;BME280;37953;52.806;18.270;2023-04-26T08:59:29;100181.22;;;8.76;84.32
51928;BME280;37953;52.806;18.270;2023-04-26T09:01:56;100180.34;;;8.76;84.61
51928;BME280;37953;52.806;18.270;2023-04-26T09:04:22;100194.16;;;8.75;84.98
51928;BME280;37953;52.806;18.270;2023-04-26T09:06:49;100189.84;;;8.75;85.19
51928;BME280;37953;52.806;18.270;2023-04-26T09:09:18;100195.03;;;8.75;82.72
51928;BME280;37953;52.806;18.270;2023-04-26T09:11:59;100200.22;;;8.80;83.19
51928;BME280;37953;52.806;18.270;2023-04-26T09:14:26;100204.59;;;8.83;82.99
51928;BME280;37953;52.806;18.270;2023-04-26T09:16:53;100192.50;;;8.88;83.76
51928;BME280;37953;52.806;18.270;2023-04-26T09:19:39;100203.78;;;8.98;85.04
51928;BME280;37953;52.806;18.270;2023-04-26T09:22:08;100208.09;;;8.97;84.16
51928;BME280;37953;52.806;18.270;2023-04-26T09:24:53;100213.31;;;9.00;84.62
51928;BME280;37953;52.806;18.270;2023-04-26T09:27:19;100208.97;;;8.98;84.09
51928;BME280;37953;52.806;18.270;2023-04-26T09:30:09;100205.53;;;9.03;86.05
51928;BME280;37953;52.806;18.270;2023-04-26T09:32:52;100218.50;;;9.06;83.88
51928;BME280;37953;52.806;18.270;2023-04-26T09:40:21;100222.81;;;9.07;81.96
51928;BME280;37953;52.806;18.270;2023-04-26T09:43:10;100219.41;;;9.13;82.95
51928;BME280;37953;52.806;18.270;2023-04-26T09:45:48;100215.97;;;9.17;84.67
51928;BME280;37953;52.806;18.270;2023-04-26T09:50:48;100222.94;;;9.27;83.02
51928;BME280;37953;52.806;18.270;2023-04-26T09:53:50;100228.13;;;9.30;80.96
51928;BME280;37953;52.806;18.270;2023-04-26T09:56:18;100216.88;;;9.28;80.32
51928;BME280;37953;52.806;18.270;2023-04-26T10:01:14;100218.59;;;9.26;79.08
51928;BME280;37953;52.806;18.270;2023-04-26T10:03:41;100221.19;;;9.23;76.99
51928;BME280;37953;52.806;18.270;2023-04-26T10:06:08;100222.00;;;9.21;76.17
51928;BME280;37953;52.806;18.270;2023-04-26T10:08:35;100217.72;;;9.16;77.27
51928;BME280;37953;52.806;18.270;2023-04-26T10:11:07;100228.06;;;9.16;78.47
51928;BME280;37953;52.806;18.270;2023-04-26T10:13:36;100228.91;;;9.15;78.77
51928;BME280;37953;52.806;18.270;2023-04-26T10:16:03;100228.06;;;9.15;78.94
51928;BME280;37953;52.806;18.270;2023-04-26T10:18:30;100227.19;;;9.17;79.43
51928;BME280;37953;52.806;18.270;2023-04-26T10:20:59;100233.25;;;9.23;78.38
51928;BME280;37953;52.806;18.270;2023-04-26T10:23:25;100231.53;;;9.25;74.37
51928;BME280;37953;52.806;18.270;2023-04-26T10:25:58;100228.13;;;9.32;76.46
51928;BME280;37953;52.806;18.270;2023-04-26T10:31:11;100230.75;;;9.46;76.33
51928;BME280;37953;52.806;18.270;2023-04-26T10:33:37;100241.16;;;9.49;74.71
51928;BME280;37953;52.806;18.270;2023-04-26T10:36:10;100245.47;;;9.47;71.75
51928;BME280;37953;52.806;18.270;2023-04-26T10:41:40;100244.59;;;9.48;71.17
51928;BME280;37953;52.806;18.270;2023-04-26T10:47:27;100242.88;;;9.50;70.41
51928;BME280;37953;52.806;18.270;2023-04-26T10:50:04;100248.06;;;9.48;69.83
51928;BME280;37953;52.806;18.270;2023-04-26T10:52:31;100254.97;;;9.46;70.12
51928;BME280;37953;52.806;18.270;2023-04-26T10:54:57;100263.59;;;9.45;69.70
51928;BME280;37953;52.806;18.270;2023-04-26T10:57:47;100259.28;;;9.43;68.64
51928;BME280;37953;52.806;18.270;2023-04-26T11:00:19;100257.53;;;9.38;68.53
51928;BME280;37953;52.806;18.270;2023-04-26T11:02:52;100265.28;;;9.37;68.79
51928;BME280;37953;52.806;18.270;2023-04-26T11:05:40;100260.97;;;9.34;67.29
51928;BME280;37953;52.806;18.270;2023-04-26T11:08:28;100267.03;;;9.33;67.93
51928;BME280;37953;52.806;18.270;2023-04-26T11:11:10;100266.16;;;9.34;70.19
51928;BME280;37953;52.806;18.270;2023-04-26T11:13:41;100270.47;;;9.35;71.84
51928;BME280;37953;52.806;18.270;2023-04-26T11:16:15;100266.16;;;9.36;71.18
51928;BME280;37953;52.806;18.270;2023-04-26T11:18:43;100262.69;;;9.37;70.24
51928;BME280;37953;52.806;18.270;2023-04-26T11:21:10;100267.03;;;9.38;69.71
51928;BME280;37953;52.806;18.270;2023-04-26T11:23:36;100269.63;;;9.38;70.65
51928;BME280;37953;52.806;18.270;2023-04-26T11:26:07;100264.44;;;9.40;68.35
51928;BME280;37953;52.806;18.270;2023-04-26T11:28:38;100272.25;;;9.43;66.08
51928;BME280;37953;52.806;18.270;2023-04-26T11:31:06;100273.13;;;9.45;64.20
51928;BME280;37953;52.806;18.270;2023-04-26T11:33:32;100270.56;;;9.51;65.08
51928;BME280;37953;52.806;18.270;2023-04-26T11:36:01;100277.50;;;9.60;67.05
51928;BME280;37953;52.806;18.270;2023-04-26T11:38:33;100264.53;;;9.64;67.02
51928;BME280;37953;52.806;18.270;2023-04-26T11:41:00;100277.53;;;9.67;66.78
51928;BME280;37953;52.806;18.270;2023-04-26T11:43:37;100275.78;;;9.69;66.63
51928;BME280;37953;52.806;18.270;2023-04-26T11:46:07;100270.59;;;9.69;64.69
51928;BME280;37953;52.806;18.270;2023-04-26T11:48:34;100287.03;;;9.70;64.07
51928;BME280;37953;52.806;18.270;2023-04-26T11:51:07;100287.88;;;9.69;63.59
51928;BME280;37953;52.806;18.270;2023-04-26T11:53:37;100291.38;;;9.68;63.11
51928;BME280;37953;52.806;18.270;2023-04-26T11:56:12;100280.97;;;9.69;62.09
51928;BME280;37953;52.806;18.270;2023-04-26T11:58:46;100290.50;;;9.70;62.43
51928;BME280;37953;52.806;18.270;2023-04-26T12:01:21;100291.38;;;9.74;61.88
51928;BME280;37953;52.806;18.270;2023-04-26T12:04:13;100291.38;;;9.77;61.60
51928;BME280;37953;52.806;18.270;2023-04-26T12:06:44;100289.69;;;9.81;63.05
51928;BME280;37953;52.806;18.270;2023-04-26T12:09:11;100292.25;;;9.81;63.55
51928;BME280;37953;52.806;18.270;2023-04-26T12:11:38;100291.41;;;9.80;64.11
51928;BME280;37953;52.806;18.270;2023-04-26T12:14:04;100290.53;;;9.78;63.97
51928;BME280;37953;52.806;18.270;2023-04-26T12:16:35;100300.91;;;9.76;63.16
51928;BME280;37953;52.806;18.270;2023-04-26T12:19:06;100293.97;;;9.75;62.42
51928;BME280;37953;52.806;18.270;2023-04-26T12:21:51;100301.75;;;9.75;61.71
51928;BME280;37953;52.806;18.270;2023-04-26T12:24:28;100296.56;;;9.77;62.65
51928;BME280;37953;52.806;18.270;2023-04-26T12:26:55;100295.72;;;9.79;64.48
51928;BME280;37953;52.806;18.270;2023-04-26T12:29:21;100295.72;;;9.83;64.82
51928;BME280;37953;52.806;18.270;2023-04-26T12:31:47;100303.50;;;9.86;64.49
51928;BME280;37953;52.806;18.270;2023-04-26T12:34:13;100303.53;;;9.89;64.22
51928;BME280;37953;52.806;18.270;2023-04-26T12:36:40;100300.94;;;9.92;63.44
51928;BME280;37953;52.806;18.270;2023-04-26T12:39:10;100300.97;;;9.98;64.19
51928;BME280;37953;52.806;18.270;2023-04-26T12:41:38;100296.66;;;10.08;64.03
51928;BME280;37953;52.806;18.270;2023-04-26T12:44:11;100312.25;;;10.14;61.86
51928;BME280;37953;52.806;18.270;2023-04-26T12:46:37;100305.34;;;10.16;58.66
51928;BME280;37953;52.806;18.270;2023-04-26T12:49:03;100305.34;;;10.16;59.54
51928;BME280;37953;52.806;18.270;2023-04-26T12:51:30;100301.84;;;10.15;59.76
51928;BME280;37953;52.806;18.270;2023-04-26T12:53:56;100312.25;;;10.14;58.38
51928;BME280;37953;52.806;18.270;2023-04-26T12:56:23;100305.31;;;10.13;57.48
51928;BME280;37953;52.806;18.270;2023-04-26T12:58:49;100296.69;;;10.14;57.86
51928;BME280;37953;52.806;18.270;2023-04-26T13:01:15;100313.97;;;10.16;59.68
51928;BME280;37953;52.806;18.270;2023-04-26T13:03:41;100313.97;;;10.18;60.86
51928;BME280;37953;52.806;18.270;2023-04-26T13:06:08;100313.09;;;10.17;60.03
51928;BME280;37953;52.806;18.270;2023-04-26T13:08:34;100319.19;;;10.16;60.62
51928;BME280;37953;52.806;18.270;2023-04-26T13:11:06;100313.13;;;10.14;60.08